Terminal Aerodrome Forecast
Issued by NWS

Home | Current Version | Previous Version | Text Only | Print | Product List | Glossary On
Versions: 1 2 3 4 5 6 7 8 9 10 11 12 13 14 15 16 17
000
FTUS41 KGYX 251308 AAB
TAFHIE
TAF AMD
KHIE 251308Z 2513/2612 00000KT P6SM FEW011 OVC035
     FM252300 00000KT P6SM SCT050
     FM260700 00000KT 1/2SM FG FEW001
     FM261100 00000KT P6SM FEW001=

USA.gov is the U.S. government's official web portal to all federal, state and local government web resources and services.